sensor_id;sensor_type;location;lat;lon;timestamp;pressure;altitude;pressure_sealevel;temperature;humidity
24610;BME280;12758;47.890;11.694;2023-03-30T00:01:05;93762.22;;;8.47;100.00
24610;BME280;12758;47.890;11.694;2023-03-30T00:03:35;93765.25;;;8.54;100.00
24610;BME280;12758;47.890;11.694;2023-03-30T00:06:06;93769.72;;;8.50;100.00
24610;BME280;12758;47.890;11.694;2023-03-30T00:08:36;93768.13;;;8.49;100.00
24610;BME280;12758;47.890;11.694;2023-03-30T00:11:03;93761.13;;;8.48;100.00
24610;BME280;12758;47.890;11.694;2023-03-30T00:13:30;93768.78;;;8.54;100.00
24610;BME280;12758;47.890;11.694;2023-03-30T00:16:00;93768.13;;;8.49;100.00
24610;BME280;12758;47.890;11.694;2023-03-30T00:18:30;93765.91;;;8.51;100.00
24610;BME280;12758;47.890;11.694;2023-03-30T00:20:57;93763.69;;;8.53;100.00
24610;BME280;12758;47.890;11.694;2023-03-30T00:23:23;93757.13;;;8.54;100.00
24610;BME280;12758;47.890;11.694;2023-03-30T00:25:49;93757.63;;;8.56;100.00
24610;BME280;12758;47.890;11.694;2023-03-30T00:28:18;93742.19;;;8.56;100.00
24610;BME280;12758;47.890;11.694;2023-03-30T00:30:44;93743.47;;;8.59;100.00
24610;BME280;12758;47.890;11.694;2023-03-30T00:33:13;93738.56;;;8.61;100.00
24610;BME280;12758;47.890;11.694;2023-03-30T00:35:39;93737.44;;;8.62;100.00
24610;BME280;12758;47.890;11.694;2023-03-30T00:38:09;93733.28;;;8.65;100.00
24610;BME280;12758;47.890;11.694;2023-03-30T00:40:35;93732.50;;;8.64;100.00
24610;BME280;12758;47.890;11.694;2023-03-30T00:43:06;93729.31;;;8.62;100.00
24610;BME280;12758;47.890;11.694;2023-03-30T00:45:36;93732.81;;;8.62;100.00
24610;BME280;12758;47.890;11.694;2023-03-30T00:48:06;93722.78;;;8.63;100.00
24610;BME280;12758;47.890;11.694;2023-03-30T00:50:35;93715.63;;;8.67;100.00
24610;BME280;12758;47.890;11.694;2023-03-30T00:53:09;93711.81;;;8.68;100.00
24610;BME280;12758;47.890;11.694;2023-03-30T00:55:39;93718.00;;;8.69;100.00
24610;BME280;12758;47.890;11.694;2023-03-30T00:58:09;93705.28;;;8.69;100.00
24610;BME280;12758;47.890;11.694;2023-03-30T01:00:37;93700.34;;;8.71;100.00
24610;BME280;12758;47.890;11.694;2023-03-30T01:03:09;93696.50;;;8.72;100.00
24610;BME280;12758;47.890;11.694;2023-03-30T01:05:39;93700.66;;;8.78;100.00
24610;BME280;12758;47.890;11.694;2023-03-30T01:08:11;93705.41;;;8.81;100.00
24610;BME280;12758;47.890;11.694;2023-03-30T01:10:41;93698.59;;;8.75;100.00
24610;BME280;12758;47.890;11.694;2023-03-30T01:13:11;93698.88;;;8.82;100.00
24610;BME280;12758;47.890;11.694;2023-03-30T01:15:40;93690.47;;;8.84;100.00
24610;BME280;12758;47.890;11.694;2023-03-30T01:18:23;93687.91;;;8.88;100.00
24610;BME280;12758;47.890;11.694;2023-03-30T01:21:30;93684.72;;;8.85;100.00
24610;BME280;12758;47.890;11.694;2023-03-30T01:24:30;93675.50;;;8.86;100.00
24610;BME280;12758;47.890;11.694;2023-03-30T01:27:06;93673.09;;;8.85;100.00
24610;BME280;12758;47.890;11.694;2023-03-30T01:29:59;93672.78;;;8.86;100.00
24610;BME280;12758;47.890;11.694;2023-03-30T01:32:40;93667.84;;;8.89;100.00
24610;BME280;12758;47.890;11.694;2023-03-30T01:35:47;93671.97;;;8.95;100.00
24610;BME280;12758;47.890;11.694;2023-03-30T01:38:55;93672.25;;;9.02;100.00
24610;BME280;12758;47.890;11.694;2023-03-30T01:41:24;93675.59;;;9.07;100.00
24610;BME280;12758;47.890;11.694;2023-03-30T01:43:59;93685.28;;;9.17;100.00
24610;BME280;12758;47.890;11.694;2023-03-30T01:46:29;93677.63;;;9.19;100.00
24610;BME280;12758;47.890;11.694;2023-03-30T01:49:02;93672.50;;;9.26;100.00
24610;BME280;12758;47.890;11.694;2023-03-30T01:51:38;93677.00;;;9.22;100.00
24610;BME280;12758;47.890;11.694;2023-03-30T01:54:11;93673.44;;;9.30;100.00
24610;BME280;12758;47.890;11.694;2023-03-30T01:56:38;93673.13;;;9.41;100.00
24610;BME280;12758;47.890;11.694;2023-03-30T01:59:10;93671.50;;;9.40;100.00
24610;BME280;12758;47.890;11.694;2023-03-30T02:01:40;93665.72;;;9.50;100.00
24610;BME280;12758;47.890;11.694;2023-03-30T02:04:08;93669.50;;;9.66;100.00
24610;BME280;12758;47.890;11.694;2023-03-30T02:06:37;93674.59;;;9.59;100.00
24610;BME280;12758;47.890;11.694;2023-03-30T02:09:11;93677.41;;;9.71;100.00
24610;BME280;12758;47.890;11.694;2023-03-30T02:11:38;93679.50;;;9.66;100.00
24610;BME280;12758;47.890;11.694;2023-03-30T02:14:05;93673.69;;;9.55;100.00
24610;BME280;12758;47.890;11.694;2023-03-30T02:16:36;93681.31;;;9.53;100.00
24610;BME280;12758;47.890;11.694;2023-03-30T02:19:04;93682.28;;;9.57;100.00
24610;BME280;12758;47.890;11.694;2023-03-30T02:21:33;93678.34;;;9.46;100.00
24610;BME280;12758;47.890;11.694;2023-03-30T02:24:00;93680.41;;;9.49;100.00
24610;BME280;12758;47.890;11.694;2023-03-30T02:26:32;93681.63;;;9.60;100.00
24610;BME280;12758;47.890;11.694;2023-03-30T02:28:58;93692.75;;;9.67;100.00
24610;BME280;12758;47.890;11.694;2023-03-30T02:31:27;93700.69;;;9.72;100.00
24610;BME280;12758;47.890;11.694;2023-03-30T02:34:07;93704.38;;;9.68;100.00
24610;BME280;12758;47.890;11.694;2023-03-30T02:36:48;93701.63;;;9.76;100.00
24610;BME280;12758;47.890;11.694;2023-03-30T02:39:23;93697.25;;;9.63;100.00
24610;BME280;12758;47.890;11.694;2023-03-30T02:42:04;93702.84;;;9.58;100.00
24610;BME280;12758;47.890;11.694;2023-03-30T02:44:36;93694.06;;;9.61;100.00
24610;BME280;12758;47.890;11.694;2023-03-30T02:47:11;93704.25;;;9.64;100.00
24610;BME280;12758;47.890;11.694;2023-03-30T02:49:49;93704.94;;;9.82;100.00
24610;BME280;12758;47.890;11.694;2023-03-30T02:52:25;93711.59;;;9.64;100.00
24610;BME280;12758;47.890;11.694;2023-03-30T02:55:00;93715.09;;;9.94;100.00
24610;BME280;12758;47.890;11.694;2023-03-30T02:57:34;93726.03;;;9.76;100.00
24610;BME280;12758;47.890;11.694;2023-03-30T03:00:07;93724.91;;;10.07;100.00
24610;BME280;12758;47.890;11.694;2023-03-30T03:02:42;93734.00;;;10.11;100.00
24610;BME280;12758;47.890;11.694;2023-03-30T03:05:12;93743.88;;;10.07;100.00
24610;BME280;12758;47.890;11.694;2023-03-30T03:07:42;93747.88;;;10.10;100.00
24610;BME280;12758;47.890;11.694;2023-03-30T03:10:09;93752.56;;;9.92;100.00
24610;BME280;12758;47.890;11.694;2023-03-30T03:12:39;93755.28;;;9.92;100.00
24610;BME280;12758;47.890;11.694;2023-03-30T03:15:06;93759.31;;;9.86;100.00
24610;BME280;12758;47.890;11.694;2023-03-30T03:17:35;93770.72;;;10.00;100.00
24610;BME280;12758;47.890;11.694;2023-03-30T03:20:04;93777.53;;;9.76;100.00
24610;BME280;12758;47.890;11.694;2023-03-30T03:22:33;93777.88;;;9.66;100.00
24610;BME280;12758;47.890;11.694;2023-03-30T03:24:59;93786.81;;;9.58;100.00
24610;BME280;12758;47.890;11.694;2023-03-30T03:27:29;93790.66;;;9.57;100.00
24610;BME280;12758;47.890;11.694;2023-03-30T03:29:56;93784.94;;;9.50;100.00
24610;BME280;12758;47.890;11.694;2023-03-30T03:32:26;93789.56;;;9.49;100.00
24610;BME280;12758;47.890;11.694;2023-03-30T03:34:54;93793.53;;;9.52;100.00
24610;BME280;12758;47.890;11.694;2023-03-30T03:37:23;93788.75;;;9.49;100.00
24610;BME280;12758;47.890;11.694;2023-03-30T03:39:49;93790.97;;;9.47;100.00
24610;BME280;12758;47.890;11.694;2023-03-30T03:42:19;93776.22;;;9.27;100.00
24610;BME280;12758;47.890;11.694;2023-03-30T03:44:48;93773.66;;;9.30;100.00
24610;BME280;12758;47.890;11.694;2023-03-30T03:47:15;93776.38;;;9.30;100.00
24610;BME280;12758;47.890;11.694;2023-03-30T03:49:41;93770.00;;;9.26;100.00
24610;BME280;12758;47.890;11.694;2023-03-30T03:52:07;93770.66;;;9.23;100.00
24610;BME280;12758;47.890;11.694;2023-03-30T03:54:36;93756.66;;;9.21;100.00
24610;BME280;12758;47.890;11.694;2023-03-30T03:57:02;93748.84;;;9.20;100.00
24610;BME280;12758;47.890;11.694;2023-03-30T03:59:33;93737.84;;;9.16;100.00
24610;BME280;12758;47.890;11.694;2023-03-30T04:01:59;93736.91;;;9.12;100.00
24610;BME280;12758;47.890;11.694;2023-03-30T04:04:28;93727.19;;;9.11;100.00
24610;BME280;12758;47.890;11.694;2023-03-30T04:06:54;93740.56;;;9.07;100.00
24610;BME280;12758;47.890;11.694;2023-03-30T04:09:24;93749.97;;;9.01;100.00
24610;BME280;12758;47.890;11.694;2023-03-30T04:11:50;93744.88;;;9.00;100.00
24610;BME280;12758;47.890;11.694;2023-03-30T04:14:19;93765.13;;;9.02;100.00
24610;BME280;12758;47.890;11.694;2023-03-30T04:16:45;93768.78;;;8.98;100.00
24610;BME280;12758;47.890;11.694;2023-03-30T04:19:16;93778.66;;;8.94;100.00
24610;BME280;12758;47.890;11.694;2023-03-30T04:21:43;93771.03;;;8.96;100.00
24610;BME280;12758;47.890;11.694;2023-03-30T04:24:14;93757.00;;;8.94;100.00
24610;BME280;12758;47.890;11.694;2023-03-30T04:26:40;93753.81;;;8.92;100.00
24610;BME280;12758;47.890;11.694;2023-03-30T04:29:16;93758.75;;;8.90;100.00
24610;BME280;12758;47.890;11.694;2023-03-30T04:31:45;93756.84;;;8.90;100.00
24610;BME280;12758;47.890;11.694;2023-03-30T04:34:14;93770.84;;;8.83;100.00
24610;BME280;12758;47.890;11.694;2023-03-30T04:36:41;93770.84;;;8.83;100.00
24610;BME280;12758;47.890;11.694;2023-03-30T04:39:08;93765.94;;;8.77;100.00
24610;BME280;12758;47.890;11.694;2023-03-30T04:41:36;93780.88;;;8.74;100.00
24610;BME280;12758;47.890;11.694;2023-03-30T04:44:06;93790.59;;;8.75;100.00
24610;BME280;12758;47.890;11.694;2023-03-30T04:46:36;93794.09;;;8.76;100.00
24610;BME280;12758;47.890;11.694;2023-03-30T04:49:03;93807.78;;;8.79;100.00
24610;BME280;12758;47.890;11.694;2023-03-30T04:51:29;93829.44;;;8.71;100.00
24610;BME280;12758;47.890;11.694;2023-03-30T04:53:58;93832.13;;;8.79;100.00
24610;BME280;12758;47.890;11.694;2023-03-30T04:56:28;93844.88;;;8.88;100.00
24610;BME280;12758;47.890;11.694;2023-03-30T04:58:54;93857.28;;;8.89;100.00
24610;BME280;12758;47.890;11.694;2023-03-30T05:01:23;93854.13;;;8.86;100.00
24610;BME280;12758;47.890;11.694;2023-03-30T05:03:49;93854.09;;;8.95;100.00
24610;BME280;12758;47.890;11.694;2023-03-30T05:06:18;93845.19;;;8.95;100.00
24610;BME280;12758;47.890;11.694;2023-03-30T05:08:46;93839.97;;;8.90;100.00
24610;BME280;12758;47.890;11.694;2023-03-30T05:11:15;93843.13;;;8.92;100.00
24610;BME280;12758;47.890;11.694;2023-03-30T05:13:41;93837.88;;;8.86;100.00
24610;BME280;12758;47.890;11.694;2023-03-30T05:16:10;93828.31;;;8.89;100.00
24610;BME280;12758;47.890;11.694;2023-03-30T05:18:36;93818.91;;;8.95;100.00
24610;BME280;12758;47.890;11.694;2023-03-30T05:21:06;93817.00;;;9.04;100.00
24610;BME280;12758;47.890;11.694;2023-03-30T05:23:32;93813.81;;;9.11;100.00
24610;BME280;12758;47.890;11.694;2023-03-30T05:26:02;93810.47;;;9.14;100.00
24610;BME280;12758;47.890;11.694;2023-03-30T05:28:31;93810.63;;;9.18;100.00
24610;BME280;12758;47.890;11.694;2023-03-30T05:31:01;93807.63;;;9.19;100.00
24610;BME280;12758;47.890;11.694;2023-03-30T05:33:27;93807.63;;;9.19;100.00
24610;BME280;12758;47.890;11.694;2023-03-30T05:35:56;93811.91;;;9.20;100.00
24610;BME280;12758;47.890;11.694;2023-03-30T05:38:25;93811.28;;;9.23;100.00
24610;BME280;12758;47.890;11.694;2023-03-30T05:40:51;93807.78;;;9.23;100.00
24610;BME280;12758;47.890;11.694;2023-03-30T05:43:17;93803.47;;;9.22;100.00
24610;BME280;12758;47.890;11.694;2023-03-30T05:45:43;93798.38;;;9.20;100.00
24610;BME280;12758;47.890;11.694;2023-03-30T05:48:13;93801.06;;;9.20;100.00
24610;BME280;12758;47.890;11.694;2023-03-30T05:50:39;93794.06;;;9.19;100.00
24610;BME280;12758;47.890;11.694;2023-03-30T05:53:10;93800.63;;;9.18;100.00
24610;BME280;12758;47.890;11.694;2023-03-30T05:55:36;93795.22;;;9.18;100.00
24610;BME280;12758;47.890;11.694;2023-03-30T05:58:02;93783.41;;;9.14;100.00
24610;BME280;12758;47.890;11.694;2023-03-30T06:00:28;93772.75;;;9.09;100.00
24610;BME280;12758;47.890;11.694;2023-03-30T06:03:00;93759.22;;;9.00;100.00
24610;BME280;12758;47.890;11.694;2023-03-30T06:05:27;93757.78;;;8.94;100.00
24610;BME280;12758;47.890;11.694;2023-03-30T06:07:56;93740.91;;;8.89;100.00
24610;BME280;12758;47.890;11.694;2023-03-30T06:10:22;93723.09;;;8.88;100.00
24610;BME280;12758;47.890;11.694;2023-03-30T06:12:51;93721.97;;;8.89;100.00
24610;BME280;12758;47.890;11.694;2023-03-30T06:15:17;93709.69;;;8.91;100.00
24610;BME280;12758;47.890;11.694;2023-03-30T06:17:46;93708.44;;;8.89;100.00
24610;BME280;12758;47.890;11.694;2023-03-30T06:20:13;93701.91;;;8.90;100.00
24610;BME280;12758;47.890;11.694;2023-03-30T06:22:42;93694.09;;;8.97;100.00
24610;BME280;12758;47.890;11.694;2023-03-30T06:25:09;93696.16;;;9.00;100.00
24610;BME280;12758;47.890;11.694;2023-03-30T06:27:38;93699.31;;;9.02;100.00
24610;BME280;12758;47.890;11.694;2023-03-30T06:30:08;93691.69;;;9.04;100.00
24610;BME280;12758;47.890;11.694;2023-03-30T06:32:37;93691.53;;;9.09;100.00
24610;BME280;12758;47.890;11.694;2023-03-30T06:35:04;93685.63;;;9.07;100.00
24610;BME280;12758;47.890;11.694;2023-03-30T06:37:33;93684.06;;;9.06;100.00
24610;BME280;12758;47.890;11.694;2023-03-30T06:40:06;93667.81;;;9.06;100.00
24610;BME280;12758;47.890;11.694;2023-03-30T06:42:40;93671.78;;;9.08;100.00
24610;BME280;12758;47.890;11.694;2023-03-30T06:45:09;93661.75;;;9.09;100.00
24610;BME280;12758;47.890;11.694;2023-03-30T06:47:38;93663.31;;;9.10;100.00
24610;BME280;12758;47.890;11.694;2023-03-30T06:50:09;93648.66;;;9.11;100.00
24610;BME280;12758;47.890;11.694;2023-03-30T06:52:38;93657.28;;;9.13;100.00
24610;BME280;12758;47.890;11.694;2023-03-30T06:55:05;93649.63;;;9.15;100.00
24610;BME280;12758;47.890;11.694;2023-03-30T06:57:36;93652.47;;;9.19;100.00
24610;BME280;12758;47.890;11.694;2023-03-30T07:00:06;93658.69;;;9.19;100.00
24610;BME280;12758;47.890;11.694;2023-03-30T07:02:41;93655.69;;;9.12;100.00
24610;BME280;12758;47.890;11.694;2023-03-30T07:05:08;93651.72;;;9.09;100.00
24610;BME280;12758;47.890;11.694;2023-03-30T07:07:37;93644.09;;;8.94;100.00
24610;BME280;12758;47.890;11.694;2023-03-30T07:10:08;93628.78;;;8.98;100.00
24610;BME280;12758;47.890;11.694;2023-03-30T07:12:34;93616.59;;;8.83;100.00
24610;BME280;12758;47.890;11.694;2023-03-30T07:15:04;93603.06;;;8.83;100.00
24610;BME280;12758;47.890;11.694;2023-03-30T07:17:32;93590.81;;;8.77;100.00
24610;BME280;12758;47.890;11.694;2023-03-30T07:20:02;93577.59;;;8.76;100.00
24610;BME280;12758;47.890;11.694;2023-03-30T07:22:28;93576.84;;;9.05;100.00
24610;BME280;12758;47.890;11.694;2023-03-30T07:24:57;93571.69;;;9.21;100.00
24610;BME280;12758;47.890;11.694;2023-03-30T07:27:24;93582.59;;;9.42;100.00
24610;BME280;12758;47.890;11.694;2023-03-30T07:29:53;93582.38;;;9.76;100.00
24610;BME280;12758;47.890;11.694;2023-03-30T07:32:19;93585.34;;;9.84;100.00
24610;BME280;12758;47.890;11.694;2023-03-30T07:34:48;93574.47;;;9.92;100.00
24610;BME280;12758;47.890;11.694;2023-03-30T07:37:14;93562.22;;;9.86;100.00
24610;BME280;12758;47.890;11.694;2023-03-30T07:39:44;93564.66;;;10.00;100.00
24610;BME280;12758;47.890;11.694;2023-03-30T07:42:10;93569.22;;;10.08;100.00
24610;BME280;12758;47.890;11.694;2023-03-30T07:44:39;93561.59;;;10.01;100.00
24610;BME280;12758;47.890;11.694;2023-03-30T07:47:05;93563.81;;;9.87;100.00
24610;BME280;12758;47.890;11.694;2023-03-30T07:49:34;93566.78;;;9.94;100.00
24610;BME280;12758;47.890;11.694;2023-03-30T07:52:03;93555.25;;;9.55;100.00
24610;BME280;12758;47.890;11.694;2023-03-30T07:54:34;93544.84;;;9.66;100.00
24610;BME280;12758;47.890;11.694;2023-03-30T07:57:00;93533.66;;;9.89;100.00
24610;BME280;12758;47.890;11.694;2023-03-30T07:59:29;93547.31;;;10.13;100.00
24610;BME280;12758;47.890;11.694;2023-03-30T08:01:59;93548.69;;;10.19;100.00
24610;BME280;12758;47.890;11.694;2023-03-30T08:04:29;93545.47;;;10.26;100.00
24610;BME280;12758;47.890;11.694;2023-03-30T08:06:55;93526.63;;;10.30;100.00
24610;BME280;12758;47.890;11.694;2023-03-30T08:09:25;93530.44;;;10.62;100.00
24610;BME280;12758;47.890;11.694;2023-03-30T08:11:54;93528.53;;;10.75;100.00
24610;BME280;12758;47.890;11.694;2023-03-30T08:14:20;93535.34;;;10.93;100.00
24610;BME280;12758;47.890;11.694;2023-03-30T08:16:48;93530.00;;;10.72;100.00
24610;BME280;12758;47.890;11.694;2023-03-30T08:19:17;93527.88;;;10.78;100.00
24610;BME280;12758;47.890;11.694;2023-03-30T08:21:46;93514.09;;;10.83;100.00
24610;BME280;12758;47.890;11.694;2023-03-30T08:24:12;93506.13;;;10.53;100.00
24610;BME280;12758;47.890;11.694;2023-03-30T08:26:42;93515.91;;;11.03;100.00
24610;BME280;12758;47.890;11.694;2023-03-30T08:29:08;93519.75;;;11.27;100.00
24610;BME280;12758;47.890;11.694;2023-03-30T08:31:37;93518.63;;;11.28;100.00
24610;BME280;12758;47.890;11.694;2023-03-30T08:34:03;93510.91;;;11.30;100.00
24610;BME280;12758;47.890;11.694;2023-03-30T08:36:33;93507.75;;;11.28;100.00
24610;BME280;12758;47.890;11.694;2023-03-30T08:38:59;93508.66;;;11.32;100.00
24610;BME280;12758;47.890;11.694;2023-03-30T08:41:43;93514.31;;;11.39;100.00
24610;BME280;12758;47.890;11.694;2023-03-30T08:44:18;93517.91;;;11.55;100.00
24610;BME280;12758;47.890;11.694;2023-03-30T08:46:50;93509.53;;;11.60;100.00
24610;BME280;12758;47.890;11.694;2023-03-30T08:49:18;93510.06;;;11.78;100.00
24610;BME280;12758;47.890;11.694;2023-03-30T08:51:49;93518.31;;;11.82;100.00
24610;BME280;12758;47.890;11.694;2023-03-30T08:54:18;93509.50;;;11.85;100.00
24610;BME280;12758;47.890;11.694;2023-03-30T08:56:55;93502.44;;;11.84;100.00
24610;BME280;12758;47.890;11.694;2023-03-30T08:59:27;93521.81;;;11.82;100.00
24610;BME280;12758;47.890;11.694;2023-03-30T09:01:58;93521.47;;;11.84;100.00
24610;BME280;12758;47.890;11.694;2023-03-30T09:04:39;93517.19;;;11.95;100.00
24610;BME280;12758;47.890;11.694;2023-03-30T09:07:13;93515.84;;;11.89;100.00
24610;BME280;12758;47.890;11.694;2023-03-30T09:09:43;93508.34;;;11.98;100.00
24610;BME280;12758;47.890;11.694;2023-03-30T09:12:16;93507.63;;;12.01;100.00
24610;BME280;12758;47.890;11.694;2023-03-30T09:14:47;93510.78;;;12.03;100.00
24610;BME280;12758;47.890;11.694;2023-03-30T09:17:18;93524.06;;;12.05;100.00
24610;BME280;12758;47.890;11.694;2023-03-30T09:19:49;93510.38;;;12.01;100.00
24610;BME280;12758;47.890;11.694;2023-03-30T09:22:20;93516.69;;;12.05;100.00
24610;BME280;12758;47.890;11.694;2023-03-30T09:24:49;93511.47;;;12.00;100.00
24610;BME280;12758;47.890;11.694;2023-03-30T09:27:22;93503.19;;;12.09;100.00
24610;BME280;12758;47.890;11.694;2023-03-30T09:29:54;93489.03;;;12.03;100.00
24610;BME280;12758;47.890;11.694;2023-03-30T09:32:28;93500.81;;;12.07;100.00
24610;BME280;12758;47.890;11.694;2023-03-30T09:34:57;93497.47;;;12.26;100.00
24610;BME280;12758;47.890;11.694;2023-03-30T09:37:27;93495.47;;;12.39;100.00
24610;BME280;12758;47.890;11.694;2023-03-30T09:39:54;93497.56;;;12.30;100.00
24610;BME280;12758;47.890;11.694;2023-03-30T09:42:30;93489.69;;;12.56;100.00
24610;BME280;12758;47.890;11.694;2023-03-30T09:44:59;93489.34;;;12.74;100.00
24610;BME280;12758;47.890;11.694;2023-03-30T09:47:32;93492.28;;;12.81;100.00
24610;BME280;12758;47.890;11.694;2023-03-30T09:50:05;93499.13;;;12.91;100.00
24610;BME280;12758;47.890;11.694;2023-03-30T09:52:37;93499.00;;;13.03;100.00
24610;BME280;12758;47.890;11.694;2023-03-30T09:55:23;93502.09;;;13.17;100.00
24610;BME280;12758;47.890;11.694;2023-03-30T09:57:52;93500.25;;;13.37;100.00
24610;BME280;12758;47.890;11.694;2023-03-30T10:00:25;93502.72;;;13.11;100.00
24610;BME280;12758;47.890;11.694;2023-03-30T10:02:57;93495.66;;;13.41;100.00
24610;BME280;12758;47.890;11.694;2023-03-30T10:05:27;93500.09;;;14.01;100.00
24610;BME280;12758;47.890;11.694;2023-03-30T10:07:58;93496.66;;;14.23;100.00
24610;BME280;12758;47.890;11.694;2023-03-30T10:10:30;93495.63;;;14.12;100.00
24610;BME280;12758;47.890;11.694;2023-03-30T10:13:04;93495.94;;;13.87;100.00
24610;BME280;12758;47.890;11.694;2023-03-30T10:15:36;93482.69;;;13.89;100.00
24610;BME280;12758;47.890;11.694;2023-03-30T10:18:13;93486.31;;;14.13;100.00
24610;BME280;12758;47.890;11.694;2023-03-30T10:20:45;93489.94;;;14.59;100.00
24610;BME280;12758;47.890;11.694;2023-03-30T10:23:20;93496.50;;;14.55;100.00
24610;BME280;12758;47.890;11.694;2023-03-30T10:25:50;93491.91;;;14.59;100.00
24610;BME280;12758;47.890;11.694;2023-03-30T10:28:27;93509.63;;;15.37;100.00
24610;BME280;12758;47.890;11.694;2023-03-30T10:30:56;93498.41;;;15.69;100.00
24610;BME280;12758;47.890;11.694;2023-03-30T10:33:26;93478.16;;;15.24;100.00
24610;BME280;12758;47.890;11.694;2023-03-30T10:35:58;93494.81;;;15.38;100.00
24610;BME280;12758;47.890;11.694;2023-03-30T10:38:29;93497.91;;;15.37;100.00
24610;BME280;12758;47.890;11.694;2023-03-30T10:40:59;93496.19;;;15.25;100.00
24610;BME280;12758;47.890;11.694;2023-03-30T10:43:30;93504.78;;;14.81;100.00
24610;BME280;12758;47.890;11.694;2023-03-30T10:46:06;93508.38;;;15.08;100.00
24610;BME280;12758;47.890;11.694;2023-03-30T10:48:39;93507.47;;;15.01;100.00
24610;BME280;12758;47.890;11.694;2023-03-30T10:51:15;93510.88;;;14.71;100.00
24610;BME280;12758;47.890;11.694;2023-03-30T10:53:49;93523.75;;;14.94;100.00
24610;BME280;12758;47.890;11.694;2023-03-30T10:56:26;93522.59;;;14.95;100.00
24610;BME280;12758;47.890;11.694;2023-03-30T10:59:06;93518.03;;;14.40;100.00
24610;BME280;12758;47.890;11.694;2023-03-30T11:01:40;93526.72;;;14.85;100.00
24610;BME280;12758;47.890;11.694;2023-03-30T11:04:20;93528.22;;;14.82;100.00
24610;BME280;12758;47.890;11.694;2023-03-30T11:06:50;93529.94;;;14.90;100.00
24610;BME280;12758;47.890;11.694;2023-03-30T11:09:20;93535.41;;;14.90;100.00
24610;BME280;12758;47.890;11.694;2023-03-30T11:11:54;93539.16;;;14.82;100.00
24610;BME280;12758;47.890;11.694;2023-03-30T11:14:22;93536.09;;;14.64;100.00
24610;BME280;12758;47.890;11.694;2023-03-30T11:16:55;93550.69;;;14.53;100.00
24610;BME280;12758;47.890;11.694;2023-03-30T11:19:25;93549.53;;;14.54;100.00
24610;BME280;12758;47.890;11.694;2023-03-30T11:22:01;93548.66;;;14.50;100.00
24610;BME280;12758;47.890;11.694;2023-03-30T11:24:30;93554.13;;;14.50;100.00
24610;BME280;12758;47.890;11.694;2023-03-30T11:27:04;93562.38;;;14.34;100.00
24610;BME280;12758;47.890;11.694;2023-03-30T11:29:35;93559.72;;;14.18;100.00
24610;BME280;12758;47.890;11.694;2023-03-30T11:32:19;93570.03;;;14.09;100.00
24610;BME280;12758;47.890;11.694;2023-03-30T11:34:54;93575.47;;;13.89;100.00
24610;BME280;12758;47.890;11.694;2023-03-30T11:37:29;93589.94;;;13.74;100.00
24610;BME280;12758;47.890;11.694;2023-03-30T11:40:03;93589.69;;;13.63;100.00
24610;BME280;12758;47.890;11.694;2023-03-30T11:42:39;93582.50;;;13.55;100.00
24610;BME280;12758;47.890;11.694;2023-03-30T11:45:16;93592.41;;;13.47;100.00
24610;BME280;12758;47.890;11.694;2023-03-30T11:47:53;93600.94;;;13.30;100.00
24610;BME280;12758;47.890;11.694;2023-03-30T11:50:26;93637.38;;;13.10;100.00
24610;BME280;12758;47.890;11.694;2023-03-30T11:53:05;93617.69;;;13.00;100.00
24610;BME280;12758;47.890;11.694;2023-03-30T11:55:45;93627.69;;;12.96;100.00
24610;BME280;12758;47.890;11.694;2023-03-30T11:58:22;93626.81;;;12.92;100.00
24610;BME280;12758;47.890;11.694;2023-03-30T12:00:58;93638.19;;;12.82;100.00
24610;BME280;12758;47.890;11.694;2023-03-30T12:03:38;93640.03;;;12.78;100.00
24610;BME280;12758;47.890;11.694;2023-03-30T12:06:29;93648.81;;;12.71;100.00
24610;BME280;12758;47.890;11.694;2023-03-30T12:09:05;93658.00;;;12.67;100.00
24610;BME280;12758;47.890;11.694;2023-03-30T12:11:39;93661.44;;;12.51;100.00
24610;BME280;12758;47.890;11.694;2023-03-30T12:14:23;93682.38;;;12.23;100.00
24610;BME280;12758;47.890;11.694;2023-03-30T12:16:54;93671.84;;;11.97;100.00
24610;BME280;12758;47.890;11.694;2023-03-30T12:19:26;93689.63;;;11.82;100.00
24610;BME280;12758;47.890;11.694;2023-03-30T12:21:54;93684.63;;;11.72;100.00
24610;BME280;12758;47.890;11.694;2023-03-30T12:24:28;93672.41;;;11.53;100.00
24610;BME280;12758;47.890;11.694;2023-03-30T12:26:59;93678.28;;;11.43;100.00
24610;BME280;12758;47.890;11.694;2023-03-30T12:29:42;93708.13;;;10.98;100.00
24610;BME280;12758;47.890;11.694;2023-03-30T12:32:19;93705.59;;;10.38;100.00
24610;BME280;12758;47.890;11.694;2023-03-30T12:34:49;93699.44;;;9.99;100.00
24610;BME280;12758;47.890;11.694;2023-03-30T12:37:16;93689.63;;;9.86;100.00
24610;BME280;12758;47.890;11.694;2023-03-30T12:39:52;93694.41;;;9.51;100.00
24610;BME280;12758;47.890;11.694;2023-03-30T12:42:23;93686.75;;;9.53;100.00
24610;BME280;12758;47.890;11.694;2023-03-30T12:45:11;93701.06;;;9.62;100.00
24610;BME280;12758;47.890;11.694;2023-03-30T12:47:57;93706.31;;;9.67;100.00
24610;BME280;12758;47.890;11.694;2023-03-30T12:50:34;93715.63;;;9.78;100.00
24610;BME280;12758;47.890;11.694;2023-03-30T12:53:15;93710.53;;;9.86;100.00
24610;BME280;12758;47.890;11.694;2023-03-30T12:55:49;93694.28;;;10.07;100.00
24610;BME280;12758;47.890;11.694;2023-03-30T12:58:43;93681.59;;;10.19;100.00
24610;BME280;12758;47.890;11.694;2023-03-30T13:01:16;93692.19;;;10.12;100.00
24610;BME280;12758;47.890;11.694;2023-03-30T13:03:46;93700.22;;;10.00;100.00
24610;BME280;12758;47.890;11.694;2023-03-30T13:06:22;93693.03;;;10.04;100.00